sensor_id;sensor_type;location;lat;lon;timestamp;pressure;altitude;pressure_sealevel;temperature;humidity
9746;BME280;4912;50.836;12.958;2023-01-10T00:00:11;97046.19;;;7.11;85.44
9746;BME280;4912;50.836;12.958;2023-01-10T00:02:42;97045.09;;;7.18;85.09
9746;BME280;4912;50.836;12.958;2023-01-10T00:05:13;97058.03;;;7.35;84.28
9746;BME280;4912;50.836;12.958;2023-01-10T00:07:44;97071.56;;;7.48;83.29
9746;BME280;4912;50.836;12.958;2023-01-10T00:10:14;97072.50;;;7.45;83.00
9746;BME280;4912;50.836;12.958;2023-01-10T00:12:45;97066.69;;;7.43;83.09
9746;BME280;4912;50.836;12.958;2023-01-10T00:15:30;97077.06;;;7.48;82.52
9746;BME280;4912;50.836;12.958;2023-01-10T00:18:01;97079.69;;;7.43;82.50
9746;BME280;4912;50.836;12.958;2023-01-10T00:20:32;97087.78;;;7.46;82.56
9746;BME280;4912;50.836;12.958;2023-01-10T00:23:02;97092.84;;;7.48;82.20
9746;BME280;4912;50.836;12.958;2023-01-10T00:25:34;97100.59;;;7.49;81.93
9746;BME280;4912;50.836;12.958;2023-01-10T00:28:05;97096.63;;;7.50;81.87
9746;BME280;4912;50.836;12.958;2023-01-10T00:30:46;97103.66;;;7.51;81.78
9746;BME280;4912;50.836;12.958;2023-01-10T00:33:21;97108.53;;;7.56;81.74
9746;BME280;4912;50.836;12.958;2023-01-10T00:35:52;97109.16;;;7.51;81.62
9746;BME280;4912;50.836;12.958;2023-01-10T00:38:22;97117.13;;;7.49;81.08
9746;BME280;4912;50.836;12.958;2023-01-10T00:40:53;97121.84;;;7.49;81.41
9746;BME280;4912;50.836;12.958;2023-01-10T00:43:23;97127.28;;;7.34;82.01
9746;BME280;4912;50.836;12.958;2023-01-10T00:46:09;97124.66;;;7.39;81.72
9746;BME280;4912;50.836;12.958;2023-01-10T00:48:40;97132.59;;;7.37;82.12
9746;BME280;4912;50.836;12.958;2023-01-10T00:51:10;97136.09;;;7.47;81.99
9746;BME280;4912;50.836;12.958;2023-01-10T00:53:40;97135.16;;;7.50;81.74
9746;BME280;4912;50.836;12.958;2023-01-10T00:56:10;97149.25;;;7.43;81.63
9746;BME280;4912;50.836;12.958;2023-01-10T00:58:41;97149.38;;;7.49;81.68
9746;BME280;4912;50.836;12.958;2023-01-10T01:01:14;97163.28;;;7.54;81.36
9746;BME280;4912;50.836;12.958;2023-01-10T01:03:44;97163.00;;;7.43;81.38
9746;BME280;4912;50.836;12.958;2023-01-10T01:06:15;97169.13;;;7.47;81.55
9746;BME280;4912;50.836;12.958;2023-01-10T01:08:45;97171.88;;;7.47;81.66
9746;BME280;4912;50.836;12.958;2023-01-10T01:11:16;97174.31;;;7.45;81.69
9746;BME280;4912;50.836;12.958;2023-01-10T01:13:46;97175.53;;;7.44;81.72
9746;BME280;4912;50.836;12.958;2023-01-10T01:16:20;97184.72;;;7.50;81.73
9746;BME280;4912;50.836;12.958;2023-01-10T01:18:51;97191.78;;;7.42;81.57
9746;BME280;4912;50.836;12.958;2023-01-10T01:21:21;97194.81;;;7.44;81.74
9746;BME280;4912;50.836;12.958;2023-01-10T01:23:54;97194.22;;;7.40;81.58
9746;BME280;4912;50.836;12.958;2023-01-10T01:26:25;97211.19;;;7.38;81.59
9746;BME280;4912;50.836;12.958;2023-01-10T01:28:55;97208.00;;;7.22;82.61
9746;BME280;4912;50.836;12.958;2023-01-10T01:31:28;97213.94;;;7.20;82.53
9746;BME280;4912;50.836;12.958;2023-01-10T01:33:59;97221.72;;;7.31;82.76
9746;BME280;4912;50.836;12.958;2023-01-10T01:36:29;97223.25;;;7.32;82.31
9746;BME280;4912;50.836;12.958;2023-01-10T01:38:59;97225.09;;;7.35;82.37
9746;BME280;4912;50.836;12.958;2023-01-10T01:41:32;97229.81;;;7.44;81.77
9746;BME280;4912;50.836;12.958;2023-01-10T01:44:16;97235.50;;;7.40;81.60
9746;BME280;4912;50.836;12.958;2023-01-10T01:46:54;97240.22;;;7.39;81.26
9746;BME280;4912;50.836;12.958;2023-01-10T01:49:31;97241.31;;;7.33;81.93
9746;BME280;4912;50.836;12.958;2023-01-10T01:52:07;97248.34;;;7.25;82.66
9746;BME280;4912;50.836;12.958;2023-01-10T01:54:41;97248.66;;;7.18;83.41
9746;BME280;4912;50.836;12.958;2023-01-10T01:57:15;97254.16;;;7.18;83.26
9746;BME280;4912;50.836;12.958;2023-01-10T01:59:50;97257.34;;;7.07;83.74
9746;BME280;4912;50.836;12.958;2023-01-10T02:02:26;97257.81;;;7.06;84.14
9746;BME280;4912;50.836;12.958;2023-01-10T02:05:02;97261.50;;;7.12;84.36
9746;BME280;4912;50.836;12.958;2023-01-10T02:07:36;97266.06;;;7.15;83.80
9746;BME280;4912;50.836;12.958;2023-01-10T02:10:13;97269.75;;;7.21;83.70
9746;BME280;4912;50.836;12.958;2023-01-10T02:12:46;97265.16;;;7.27;83.62
9746;BME280;4912;50.836;12.958;2023-01-10T02:15:19;97273.72;;;7.38;82.98
9746;BME280;4912;50.836;12.958;2023-01-10T02:17:53;97275.25;;;7.30;82.86
9746;BME280;4912;50.836;12.958;2023-01-10T02:20:23;97273.09;;;7.16;83.52
9746;BME280;4912;50.836;12.958;2023-01-10T02:26:47;97281.81;;;7.23;83.52
9746;BME280;4912;50.836;12.958;2023-01-10T02:32:49;97288.69;;;7.10;84.11
9746;BME280;4912;50.836;12.958;2023-01-10T02:35:48;97290.06;;;7.05;84.67
9746;BME280;4912;50.836;12.958;2023-01-10T02:38:35;97289.59;;;7.16;84.54
9746;BME280;4912;50.836;12.958;2023-01-10T02:41:18;97300.00;;;7.12;84.67
9746;BME280;4912;50.836;12.958;2023-01-10T02:43:56;97300.63;;;7.16;84.46
9746;BME280;4912;50.836;12.958;2023-01-10T02:46:32;97309.63;;;7.16;84.46
9746;BME280;4912;50.836;12.958;2023-01-10T02:49:09;97305.78;;;7.14;84.59
9746;BME280;4912;50.836;12.958;2023-01-10T02:51:39;97317.69;;;7.02;85.09
9746;BME280;4912;50.836;12.958;2023-01-10T02:54:11;97323.81;;;6.96;85.69
9746;BME280;4912;50.836;12.958;2023-01-10T02:56:57;97326.44;;;7.00;85.71
9746;BME280;4912;50.836;12.958;2023-01-10T03:00:00;97330.69;;;6.92;86.04
9746;BME280;4912;50.836;12.958;2023-01-10T03:02:55;97334.81;;;6.96;86.34
9746;BME280;4912;50.836;12.958;2023-01-10T03:05:46;97342.44;;;6.92;86.45
9746;BME280;4912;50.836;12.958;2023-01-10T03:08:29;97341.84;;;6.97;85.98
9746;BME280;4912;50.836;12.958;2023-01-10T03:11:04;97347.03;;;6.95;86.21
9746;BME280;4912;50.836;12.958;2023-01-10T03:13:42;97353.75;;;6.94;86.26
9746;BME280;4912;50.836;12.958;2023-01-10T03:16:19;97362.03;;;7.04;86.34
9746;BME280;4912;50.836;12.958;2023-01-10T03:18:56;97357.91;;;6.99;86.24
9746;BME280;4912;50.836;12.958;2023-01-10T03:21:32;97367.03;;;6.96;86.37
9746;BME280;4912;50.836;12.958;2023-01-10T03:24:07;97368.56;;;6.97;86.28
9746;BME280;4912;50.836;12.958;2023-01-10T03:26:46;97371.06;;;7.13;85.81
9746;BME280;4912;50.836;12.958;2023-01-10T03:29:33;97381.59;;;7.15;85.22
9746;BME280;4912;50.836;12.958;2023-01-10T03:32:11;97385.28;;;7.12;85.29
9746;BME280;4912;50.836;12.958;2023-01-10T03:34:43;97385.13;;;7.15;85.21
9746;BME280;4912;50.836;12.958;2023-01-10T03:37:19;97389.75;;;7.27;84.97
9746;BME280;4912;50.836;12.958;2023-01-10T03:39:57;97400.13;;;7.23;84.45
9746;BME280;4912;50.836;12.958;2023-01-10T03:42:35;97399.53;;;7.28;84.16
9746;BME280;4912;50.836;12.958;2023-01-10T03:45:31;97410.06;;;7.21;84.04
9746;BME280;4912;50.836;12.958;2023-01-10T03:48:06;97410.97;;;7.27;83.73
9746;BME280;4912;50.836;12.958;2023-01-10T03:50:39;97413.44;;;7.34;83.28
9746;BME280;4912;50.836;12.958;2023-01-10T03:53:14;97426.59;;;7.30;82.82
9746;BME280;4912;50.836;12.958;2023-01-10T03:55:45;97425.34;;;7.31;82.82
9746;BME280;4912;50.836;12.958;2023-01-10T03:58:15;97429.81;;;7.28;82.64
9746;BME280;4912;50.836;12.958;2023-01-10T04:00:47;97427.03;;;7.28;82.17
9746;BME280;4912;50.836;12.958;2023-01-10T04:03:18;97436.50;;;7.27;82.00
9746;BME280;4912;50.836;12.958;2023-01-10T04:05:48;97436.03;;;7.20;82.77
9746;BME280;4912;50.836;12.958;2023-01-10T04:08:22;97439.72;;;7.26;82.26
9746;BME280;4912;50.836;12.958;2023-01-10T04:10:52;97446.03;;;7.35;82.12
9746;BME280;4912;50.836;12.958;2023-01-10T04:13:22;97451.19;;;7.24;82.35
9746;BME280;4912;50.836;12.958;2023-01-10T04:15:53;97462.38;;;7.30;82.44
9746;BME280;4912;50.836;12.958;2023-01-10T04:18:23;97467.28;;;7.35;82.11
9746;BME280;4912;50.836;12.958;2023-01-10T04:20:53;97465.69;;;7.25;82.51
9746;BME280;4912;50.836;12.958;2023-01-10T04:23:26;97469.53;;;7.27;82.40
9746;BME280;4912;50.836;12.958;2023-01-10T04:25:57;97479.00;;;7.26;82.84
9746;BME280;4912;50.836;12.958;2023-01-10T04:28:27;97478.88;;;7.30;82.69
9746;BME280;4912;50.836;12.958;2023-01-10T04:30:57;97495.94;;;7.16;82.99
9746;BME280;4912;50.836;12.958;2023-01-10T04:33:28;97492.25;;;7.10;83.35
9746;BME280;4912;50.836;12.958;2023-01-10T04:35:58;97498.50;;;7.10;83.90
9746;BME280;4912;50.836;12.958;2023-01-10T04:38:32;97502.56;;;7.27;83.38
9746;BME280;4912;50.836;12.958;2023-01-10T04:41:02;97502.38;;;7.22;83.21
9746;BME280;4912;50.836;12.958;2023-01-10T04:43:33;97507.44;;;7.23;82.96
9746;BME280;4912;50.836;12.958;2023-01-10T04:46:03;97517.09;;;7.37;82.77
9746;BME280;4912;50.836;12.958;2023-01-10T04:48:34;97527.00;;;7.25;82.44
9746;BME280;4912;50.836;12.958;2023-01-10T04:51:05;97524.41;;;7.22;83.06
9746;BME280;4912;50.836;12.958;2023-01-10T04:53:38;97538.91;;;7.22;83.15
9746;BME280;4912;50.836;12.958;2023-01-10T04:56:12;97536.88;;;7.14;83.62
9746;BME280;4912;50.836;12.958;2023-01-10T04:58:45;97537.91;;;7.07;83.74
9746;BME280;4912;50.836;12.958;2023-01-10T05:01:21;97543.31;;;7.11;84.11
9746;BME280;4912;50.836;12.958;2023-01-10T05:03:54;97535.06;;;7.20;83.64
9746;BME280;4912;50.836;12.958;2023-01-10T05:06:25;97546.56;;;7.18;83.84
9746;BME280;4912;50.836;12.958;2023-01-10T05:08:58;97552.22;;;7.24;83.55
9746;BME280;4912;50.836;12.958;2023-01-10T05:11:28;97566.84;;;7.12;83.82
9746;BME280;4912;50.836;12.958;2023-01-10T05:13:59;97576.63;;;7.13;83.78
9746;BME280;4912;50.836;12.958;2023-01-10T05:16:29;97578.63;;;7.12;83.44
9746;BME280;4912;50.836;12.958;2023-01-10T05:19:00;97565.34;;;7.20;83.43
9746;BME280;4912;50.836;12.958;2023-01-10T05:21:30;97574.88;;;7.28;82.50
9746;BME280;4912;50.836;12.958;2023-01-10T05:24:04;97590.78;;;7.33;82.47
9746;BME280;4912;50.836;12.958;2023-01-10T05:26:35;97588.47;;;7.31;82.27
9746;BME280;4912;50.836;12.958;2023-01-10T05:29:06;97590.63;;;7.36;82.50
9746;BME280;4912;50.836;12.958;2023-01-10T05:31:37;97594.94;;;7.37;82.38
9746;BME280;4912;50.836;12.958;2023-01-10T05:34:10;97600.31;;;7.41;81.99
9746;BME280;4912;50.836;12.958;2023-01-10T05:36:41;97605.16;;;7.37;81.92
9746;BME280;4912;50.836;12.958;2023-01-10T05:39:14;97606.97;;;7.31;81.97
9746;BME280;4912;50.836;12.958;2023-01-10T05:41:44;97621.06;;;7.33;82.32
9746;BME280;4912;50.836;12.958;2023-01-10T05:44:14;97625.63;;;7.27;82.59
9746;BME280;4912;50.836;12.958;2023-01-10T05:46:45;97619.31;;;7.17;83.39
9746;BME280;4912;50.836;12.958;2023-01-10T05:49:15;97617.19;;;7.21;83.89
9746;BME280;4912;50.836;12.958;2023-01-10T05:51:45;97627.41;;;7.21;83.71
9746;BME280;4912;50.836;12.958;2023-01-10T05:54:19;97632.84;;;7.33;83.55
9746;BME280;4912;50.836;12.958;2023-01-10T05:56:49;97631.56;;;7.25;84.44
9746;BME280;4912;50.836;12.958;2023-01-10T05:59:22;97638.16;;;7.28;85.12
9746;BME280;4912;50.836;12.958;2023-01-10T06:01:54;97648.72;;;7.29;86.88
9746;BME280;4912;50.836;12.958;2023-01-10T06:04:25;97648.97;;;7.22;87.84
9746;BME280;4912;50.836;12.958;2023-01-10T06:06:55;97650.00;;;7.16;88.99
9746;BME280;4912;50.836;12.958;2023-01-10T06:09:28;97651.94;;;7.06;89.82
9746;BME280;4912;50.836;12.958;2023-01-10T06:11:58;97666.56;;;7.03;90.91
9746;BME280;4912;50.836;12.958;2023-01-10T06:14:29;97670.53;;;7.02;91.98
9746;BME280;4912;50.836;12.958;2023-01-10T06:16:59;97671.75;;;7.01;91.42
9746;BME280;4912;50.836;12.958;2023-01-10T06:19:29;97677.47;;;7.07;91.94
9746;BME280;4912;50.836;12.958;2023-01-10T06:21:59;97681.47;;;7.15;91.25
9746;BME280;4912;50.836;12.958;2023-01-10T06:24:32;97690.94;;;7.14;91.28
9746;BME280;4912;50.836;12.958;2023-01-10T06:27:03;97692.72;;;7.08;91.57
9746;BME280;4912;50.836;12.958;2023-01-10T06:29:33;97694.84;;;7.04;91.20
9746;BME280;4912;50.836;12.958;2023-01-10T06:32:03;97695.94;;;7.06;91.59
9746;BME280;4912;50.836;12.958;2023-01-10T06:34:34;97706.50;;;7.08;91.15
9746;BME280;4912;50.836;12.958;2023-01-10T06:37:04;97711.88;;;7.11;91.08
9746;BME280;4912;50.836;12.958;2023-01-10T06:39:37;97720.00;;;7.15;91.33
9746;BME280;4912;50.836;12.958;2023-01-10T06:42:08;97722.44;;;7.13;91.04
9746;BME280;4912;50.836;12.958;2023-01-10T06:44:38;97726.28;;;7.15;90.63
9746;BME280;4912;50.836;12.958;2023-01-10T06:47:08;97736.50;;;7.15;91.25
9746;BME280;4912;50.836;12.958;2023-01-10T06:49:39;97735.94;;;7.20;90.78
9746;BME280;4912;50.836;12.958;2023-01-10T06:52:09;97739.41;;;7.11;91.07
9746;BME280;4912;50.836;12.958;2023-01-10T06:54:42;97748.53;;;7.08;91.67
9746;BME280;4912;50.836;12.958;2023-01-10T06:57:12;97766.56;;;7.09;92.45
9746;BME280;4912;50.836;12.958;2023-01-10T06:59:43;97762.75;;;7.07;92.75
9746;BME280;4912;50.836;12.958;2023-01-10T07:02:13;97763.28;;;7.02;93.58
9746;BME280;4912;50.836;12.958;2023-01-10T07:04:44;97779.06;;;6.88;94.16
9746;BME280;4912;50.836;12.958;2023-01-10T07:07:14;97789.19;;;6.91;94.05
9746;BME280;4912;50.836;12.958;2023-01-10T07:09:47;97795.31;;;6.95;93.92
9746;BME280;4912;50.836;12.958;2023-01-10T07:12:18;97799.19;;;6.98;93.34
9746;BME280;4912;50.836;12.958;2023-01-10T07:14:48;97795.84;;;7.03;94.27
9746;BME280;4912;50.836;12.958;2023-01-10T07:17:18;97797.41;;;7.04;95.54
9746;BME280;4912;50.836;12.958;2023-01-10T07:19:49;97799.31;;;6.94;95.84
9746;BME280;4912;50.836;12.958;2023-01-10T07:22:19;97811.94;;;6.92;97.52
9746;BME280;4912;50.836;12.958;2023-01-10T07:24:52;97809.75;;;6.99;97.79
9746;BME280;4912;50.836;12.958;2023-01-10T07:27:23;97820.19;;;7.05;98.20
9746;BME280;4912;50.836;12.958;2023-01-10T07:29:53;97821.50;;;7.13;98.27
9746;BME280;4912;50.836;12.958;2023-01-10T07:32:24;97836.13;;;7.10;97.79
9746;BME280;4912;50.836;12.958;2023-01-10T07:34:55;97836.47;;;7.12;98.20
9746;BME280;4912;50.836;12.958;2023-01-10T07:37:25;97842.59;;;7.16;98.04
9746;BME280;4912;50.836;12.958;2023-01-10T07:39:59;97844.16;;;7.17;96.91
9746;BME280;4912;50.836;12.958;2023-01-10T07:42:29;97847.66;;;7.17;96.13
9746;BME280;4912;50.836;12.958;2023-01-10T07:44:59;97851.19;;;7.18;95.58
9746;BME280;4912;50.836;12.958;2023-01-10T07:47:30;97861.09;;;7.15;95.30
9746;BME280;4912;50.836;12.958;2023-01-10T07:50:00;97859.44;;;7.18;95.67
9746;BME280;4912;50.836;12.958;2023-01-10T07:52:31;97868.50;;;7.06;94.94
9746;BME280;4912;50.836;12.958;2023-01-10T07:55:08;97874.50;;;7.13;95.93
9746;BME280;4912;50.836;12.958;2023-01-10T07:57:38;97880.22;;;7.19;95.56
9746;BME280;4912;50.836;12.958;2023-01-10T08:00:10;97883.66;;;7.10;93.50
9746;BME280;4912;50.836;12.958;2023-01-10T08:02:44;97877.81;;;7.08;93.04
9746;BME280;4912;50.836;12.958;2023-01-10T08:05:15;97879.50;;;7.06;93.05
9746;BME280;4912;50.836;12.958;2023-01-10T08:07:46;97890.03;;;7.07;93.33
9746;BME280;4912;50.836;12.958;2023-01-10T08:10:19;97893.13;;;7.09;93.63
9746;BME280;4912;50.836;12.958;2023-01-10T08:12:49;97897.84;;;7.21;93.72
9746;BME280;4912;50.836;12.958;2023-01-10T08:15:19;97902.47;;;7.24;93.37
9746;BME280;4912;50.836;12.958;2023-01-10T08:17:50;97902.13;;;7.22;93.14
9746;BME280;4912;50.836;12.958;2023-01-10T08:20:20;97911.47;;;7.25;93.57
9746;BME280;4912;50.836;12.958;2023-01-10T08:22:51;97914.13;;;7.16;93.43
9746;BME280;4912;50.836;12.958;2023-01-10T08:25:24;97922.72;;;7.18;94.00
9746;BME280;4912;50.836;12.958;2023-01-10T08:27:55;97924.81;;;7.14;93.42
9746;BME280;4912;50.836;12.958;2023-01-10T08:30:25;97929.66;;;7.10;94.30
9746;BME280;4912;50.836;12.958;2023-01-10T08:32:56;97935.38;;;7.15;94.28
9746;BME280;4912;50.836;12.958;2023-01-10T08:35:26;97934.81;;;7.20;94.59
9746;BME280;4912;50.836;12.958;2023-01-10T08:37:57;97944.06;;;7.26;93.90
9746;BME280;4912;50.836;12.958;2023-01-10T08:40:31;97953.00;;;7.18;93.40
9746;BME280;4912;50.836;12.958;2023-01-10T08:43:03;97949.78;;;7.32;93.47
9746;BME280;4912;50.836;12.958;2023-01-10T08:45:35;97947.47;;;7.30;92.80
9746;BME280;4912;50.836;12.958;2023-01-10T08:48:06;97961.13;;;7.34;92.39
9746;BME280;4912;50.836;12.958;2023-01-10T08:50:37;97964.66;;;7.34;92.97
9746;BME280;4912;50.836;12.958;2023-01-10T08:53:08;97965.19;;;7.29;93.16
9746;BME280;4912;50.836;12.958;2023-01-10T08:55:42;97969.16;;;7.28;93.46
9746;BME280;4912;50.836;12.958;2023-01-10T08:58:13;97974.97;;;7.30;93.48
9746;BME280;4912;50.836;12.958;2023-01-10T09:00:43;97970.25;;;7.31;93.65
9746;BME280;4912;50.836;12.958;2023-01-10T09:03:15;97967.84;;;7.33;93.98
9746;BME280;4912;50.836;12.958;2023-01-10T09:05:46;97969.81;;;7.45;92.93
9746;BME280;4912;50.836;12.958;2023-01-10T09:08:16;97983.13;;;7.47;91.99
9746;BME280;4912;50.836;12.958;2023-01-10T09:10:49;97984.31;;;7.58;91.51
9746;BME280;4912;50.836;12.958;2023-01-10T09:13:20;97995.97;;;7.62;90.98
9746;BME280;4912;50.836;12.958;2023-01-10T09:15:51;97995.84;;;7.66;90.75
9746;BME280;4912;50.836;12.958;2023-01-10T09:18:23;98001.91;;;7.61;89.96
9746;BME280;4912;50.836;12.958;2023-01-10T09:20:54;98009.66;;;7.53;90.07
9746;BME280;4912;50.836;12.958;2023-01-10T09:23:25;98006.75;;;7.69;90.85
9746;BME280;4912;50.836;12.958;2023-01-10T09:25:59;98019.75;;;7.69;89.86
9746;BME280;4912;50.836;12.958;2023-01-10T09:28:30;98024.06;;;7.70;89.54
9746;BME280;4912;50.836;12.958;2023-01-10T09:31:00;98021.38;;;7.79;88.78
9746;BME280;4912;50.836;12.958;2023-01-10T09:33:31;98030.84;;;7.78;88.03
9746;BME280;4912;50.836;12.958;2023-01-10T09:36:12;98025.81;;;7.76;87.61
9746;BME280;4912;50.836;12.958;2023-01-10T09:38:42;98036.84;;;7.76;87.24
9746;BME280;4912;50.836;12.958;2023-01-10T09:41:35;98022.16;;;7.79;86.71
9746;BME280;4912;50.836;12.958;2023-01-10T09:44:36;98027.00;;;7.88;85.80
9746;BME280;4912;50.836;12.958;2023-01-10T09:47:16;98034.56;;;7.97;85.27
9746;BME280;4912;50.836;12.958;2023-01-10T09:49:59;98033.00;;;8.08;84.89
9746;BME280;4912;50.836;12.958;2023-01-10T09:52:43;98034.88;;;8.11;82.97
9746;BME280;4912;50.836;12.958;2023-01-10T09:55:22;98026.72;;;8.08;82.46
9746;BME280;4912;50.836;12.958;2023-01-10T09:58:04;98024.69;;;8.21;82.43
9746;BME280;4912;50.836;12.958;2023-01-10T10:00:42;98033.94;;;8.27;81.69
9746;BME280;4912;50.836;12.958;2023-01-10T10:03:24;98032.97;;;8.21;80.67
9746;BME280;4912;50.836;12.958;2023-01-10T10:05:59;98034.84;;;8.24;80.79
9746;BME280;4912;50.836;12.958;2023-01-10T10:08:38;98027.66;;;8.27;80.13
9746;BME280;4912;50.836;12.958;2023-01-10T10:11:14;98032.63;;;8.19;79.32
9746;BME280;4912;50.836;12.958;2023-01-10T10:14:05;98027.19;;;8.28;79.11
9746;BME280;4912;50.836;12.958;2023-01-10T10:16:52;98028.25;;;8.43;78.88
9746;BME280;4912;50.836;12.958;2023-01-10T10:19:50;98033.53;;;8.50;78.38
9746;BME280;4912;50.836;12.958;2023-01-10T10:22:37;98028.75;;;8.29;77.15
9746;BME280;4912;50.836;12.958;2023-01-10T10:25:33;98038.22;;;8.41;78.33
9746;BME280;4912;50.836;12.958;2023-01-10T10:28:31;98045.78;;;8.49;78.05
9746;BME280;4912;50.836;12.958;2023-01-10T10:31:30;98053.34;;;8.36;77.17
9746;BME280;4912;50.836;12.958;2023-01-10T10:34:14;98045.09;;;8.23;77.42
9746;BME280;4912;50.836;12.958;2023-01-10T10:36:52;98056.56;;;8.22;76.90
9746;BME280;4912;50.836;12.958;2023-01-10T10:39:30;98049.44;;;8.12;76.65
9746;BME280;4912;50.836;12.958;2023-01-10T10:42:11;98046.34;;;8.10;76.92
9746;BME280;4912;50.836;12.958;2023-01-10T10:44:46;98062.41;;;8.24;76.48
9746;BME280;4912;50.836;12.958;2023-01-10T10:47:27;98061.16;;;8.25;76.79
9746;BME280;4912;50.836;12.958;2023-01-10T10:50:08;98056.47;;;8.13;75.46
9746;BME280;4912;50.836;12.958;2023-01-10T10:52:47;98054.94;;;8.12;74.79
9746;BME280;4912;50.836;12.958;2023-01-10T10:55:21;98061.22;;;8.12;73.64
9746;BME280;4912;50.836;12.958;2023-01-10T10:57:59;98059.13;;;8.04;72.71
9746;BME280;4912;50.836;12.958;2023-01-10T11:00:31;98058.69;;;8.05;72.76
9746;BME280;4912;50.836;12.958;2023-01-10T11:03:15;98061.03;;;8.07;72.49
9746;BME280;4912;50.836;12.958;2023-01-10T11:05:55;98071.31;;;8.28;72.55
9746;BME280;4912;50.836;12.958;2023-01-10T11:08:27;98064.81;;;8.22;70.60
9746;BME280;4912;50.836;12.958;2023-01-10T11:11:01;98058.53;;;8.34;71.33
9746;BME280;4912;50.836;12.958;2023-01-10T11:13:43;98041.59;;;8.67;70.04
9746;BME280;4912;50.836;12.958;2023-01-10T11:16:26;98031.34;;;8.89;67.64
9746;BME280;4912;50.836;12.958;2023-01-10T11:19:15;98035.69;;;8.99;65.73
9746;BME280;4912;50.836;12.958;2023-01-10T11:21:51;98047.00;;;8.92;66.28
9746;BME280;4912;50.836;12.958;2023-01-10T11:24:26;98062.72;;;8.82;64.56
9746;BME280;4912;50.836;12.958;2023-01-10T11:27:01;98073.00;;;8.82;65.09
9746;BME280;4912;50.836;12.958;2023-01-10T11:29:37;98070.44;;;8.87;64.59
9746;BME280;4912;50.836;12.958;2023-01-10T11:32:13;98060.00;;;8.91;63.55
9746;BME280;4912;50.836;12.958;2023-01-10T11:34:54;98047.19;;;9.28;61.71
9746;BME280;4912;50.836;12.958;2023-01-10T11:37:30;98070.25;;;9.43;60.56
9746;BME280;4912;50.836;12.958;2023-01-10T11:40:20;98077.91;;;9.30;60.86
9746;BME280;4912;50.836;12.958;2023-01-10T11:42:52;98072.13;;;9.16;62.23
9746;BME280;4912;50.836;12.958;2023-01-10T11:45:30;98056.69;;;9.27;61.65
9746;BME280;4912;50.836;12.958;2023-01-10T11:48:07;98061.88;;;9.25;61.86
9746;BME280;4912;50.836;12.958;2023-01-10T11:50:55;98072.38;;;9.30;60.91
9746;BME280;4912;50.836;12.958;2023-01-10T11:53:34;98067.63;;;9.09;61.38
9746;BME280;4912;50.836;12.958;2023-01-10T11:56:09;98063.78;;;9.37;60.84
9746;BME280;4912;50.836;12.958;2023-01-10T11:58:42;98058.63;;;9.49;59.83
9746;BME280;4912;50.836;12.958;2023-01-10T12:01:25;98069.84;;;9.94;58.83
9746;BME280;4912;50.836;12.958;2023-01-10T12:03:57;98076.91;;;9.95;57.34
9746;BME280;4912;50.836;12.958;2023-01-10T12:06:32;98080.66;;;9.70;57.19
9746;BME280;4912;50.836;12.958;2023-01-10T12:09:03;98079.28;;;9.66;58.27
9746;BME280;4912;50.836;12.958;2023-01-10T12:11:33;98085.00;;;9.80;58.18
9746;BME280;4912;50.836;12.958;2023-01-10T12:14:18;98080.69;;;9.79;56.05
9746;BME280;4912;50.836;12.958;2023-01-10T12:16:57;98086.03;;;9.65;55.65
9746;BME280;4912;50.836;12.958;2023-01-10T12:19:29;98096.22;;;9.46;56.23
9746;BME280;4912;50.836;12.958;2023-01-10T12:22:03;98108.25;;;9.30;56.97
9746;BME280;4912;50.836;12.958;2023-01-10T12:24:38;98113.16;;;9.04;59.20
9746;BME280;4912;50.836;12.958;2023-01-10T12:27:11;98114.00;;;8.92;59.29
9746;BME280;4912;50.836;12.958;2023-01-10T12:29:46;98104.56;;;8.81;59.51
9746;BME280;4912;50.836;12.958;2023-01-10T12:32:22;98113.81;;;8.87;60.19
9746;BME280;4912;50.836;12.958;2023-01-10T12:35:00;98111.88;;;8.75;60.79
9746;BME280;4912;50.836;12.958;2023-01-10T12:37:40;98110.72;;;8.85;61.26
9746;BME280;4912;50.836;12.958;2023-01-10T12:40:19;98105.56;;;8.96;61.01
9746;BME280;4912;50.836;12.958;2023-01-10T12:42:59;98110.31;;;8.95;60.23
9746;BME280;4912;50.836;12.958;2023-01-10T12:45:47;98118.22;;;8.84;59.76
9746;BME280;4912;50.836;12.958;2023-01-10T12:48:23;98115.84;;;8.74;59.77
9746;BME280;4912;50.836;12.958;2023-01-10T12:51:01;98119.03;;;8.50;59.39
9746;BME280;4912;50.836;12.958;2023-01-10T12:53:39;98114.75;;;8.37;60.27
9746;BME280;4912;50.836;12.958;2023-01-10T12:56:14;98121.94;;;8.34;60.63
9746;BME280;4912;50.836;12.958;2023-01-10T12:58:47;98113.88;;;8.40;60.25
9746;BME280;4912;50.836;12.958;2023-01-10T13:01:23;98115.53;;;8.37;60.75
9746;BME280;4912;50.836;12.958;2023-01-10T13:04:01;98120.41;;;8.33;61.12
9746;BME280;4912;50.836;12.958;2023-01-10T13:06:37;98119.03;;;8.25;60.41
9746;BME280;4912;50.836;12.958;2023-01-10T13:09:15;98127.44;;;8.21;61.06
9746;BME280;4912;50.836;12.958;2023-01-10T13:11:52;98137.69;;;8.21;61.16
9746;BME280;4912;50.836;12.958;2023-01-10T13:14:29;98130.97;;;8.22;61.71
9746;BME280;4912;50.836;12.958;2023-01-10T13:17:14;98140.59;;;8.30;61.23
9746;BME280;4912;50.836;12.958;2023-01-10T13:22:57;98147.38;;;8.26;62.03
9746;BME280;4912;50.836;12.958;2023-01-10T13:25:33;98145.31;;;8.30;61.81
9746;BME280;4912;50.836;12.958;2023-01-10T13:28:07;98154.13;;;8.25;61.96
9746;BME280;4912;50.836;12.958;2023-01-10T13:30:50;98159.00;;;8.08;62.48
9746;BME280;4912;50.836;12.958;2023-01-10T13:33:23;98149.63;;;8.05;62.64
9746;BME280;4912;50.836;12.958;2023-01-10T13:35:56;98147.66;;;7.93;62.20
9746;BME280;4912;50.836;12.958;2023-01-10T13:38:42;98153.38;;;7.99;62.92
9746;BME280;4912;50.836;12.958;2023-01-10T13:41:19;98144.66;;;8.13;63.16
9746;BME280;4912;50.836;12.958;2023-01-10T13:44:06;98149.50;;;8.09;62.60
9746;BME280;4912;50.836;12.958;2023-01-10T13:46:43;98154.38;;;8.17;62.42
9746;BME280;4912;50.836;12.958;2023-01-10T13:49:40;98147.75;;;8.15;62.46
9746;BME280;4912;50.836;12.958;2023-01-10T13:52:38;98133.41;;;8.20;62.85
9746;BME280;4912;50.836;12.958;2023-01-10T13:55:27;98153.38;;;8.24;62.62
9746;BME280;4912;50.836;12.958;2023-01-10T13:58:40;98161.28;;;8.22;63.21
9746;BME280;4912;50.836;12.958;2023-01-10T14:01:26;98162.94;;;8.32;62.82
9746;BME280;4912;50.836;12.958;2023-01-10T14:04:19;98156.56;;;8.10;63.34
9746;BME280;4912;50.836;12.958;2023-01-10T14:06:51;98160.53;;;8.09;64.21
9746;BME280;4912;50.836;12.958;2023-01-10T14:09:34;98163.50;;;8.14;63.78
9746;BME280;4912;50.836;12.958;2023-01-10T14:12:16;98160.44;;;8.00;64.07
9746;BME280;4912;50.836;12.958;2023-01-10T14:14:59;98166.16;;;7.93;64.48